メインページ
METAR-TAF:

METAR-TAF

空港 :

ラガーディア空港

ニューヨーク / ラガーディア, ニューヨーク, アメリカ合衆国

緯度: 40-46-45N, 経度: 073-52-48W, 海抜: 6m

現時点の気象観測

当レポートは57分前の09:51(UTC)に作成
の風 9kt
気温 19°C
湿度 73%
気圧 1020 hPa
視程: 16.1km
高度2300ftの曇り

METAR: KLGA 200951Z 09009KT 10SM OVC023 19/14 A3012 RMK AO2 SLP200 T01890139 $

時間: 06:48 (10:48 UTC)

予報

当レポートは2時間14分前の08:34(UTC)に作成
予報は20日の 09時(UTC)から 21日の 12時(UTC)まで有効
北東の風 7kt
視程: 10km
高度2000ftの曇り
20日の 1300時(UTC)から
北東の風 8kt
視程: 10km
高度3500ftの千切れ雲あり
20日の 1800時(UTC)から
東/北東の風 6kt
視程: 10km
高度3500ftの雲は散在している
20日の 2100時(UTC)から
東/南東の風 5kt
視程: 10km
高度3500ftの雲は散在している
21日の 0400時(UTC)から
南東の風 6kt
視程: 10km
高度2000ftの千切れ雲あり

TAF: KLGA 200834Z 2009/2112 05007KT P6SM OVC020 FM201300 05008KT P6SM BKN035 FM201800 06006KT P6SM SCT035 FM202100 11005KT P6SM SCT035 FM210400 14006KT P6SM BKN020

4,000以上の空港の気象観測と天気予報(METAR報とTAF報)

利用可能な観測所は地図上に黄色い丸と赤い丸で示す。

丸の上にカーソルを重ねると観測所名を参照できる。

次にクリックすると気象観測と天気予報を参照できる。

マップの切り替え:黒色「×」印の緑ボタンをクリックして拡大、「-」印の緑ボタンをクリックして縮小、緑色の三角印をクリックして隣りの地図に切り替え


METAR-TAF: